createdAt,value
2023-02-12T00:01:41.557Z,98062.00
2023-02-12T00:05:44.619Z,98059.00
2023-02-12T00:09:50.338Z,98056.00
2023-02-12T00:13:58.374Z,98049.00
2023-02-12T00:18:01.787Z,98051.00
2023-02-12T00:22:05.111Z,98043.00
2023-02-12T00:26:11.560Z,98038.00
2023-02-12T00:30:15.018Z,98036.00
2023-02-12T00:34:21.191Z,98040.00
2023-02-12T00:38:24.371Z,98054.00
2023-02-12T00:42:29.294Z,98054.00
2023-02-12T00:46:32.389Z,98060.00
2023-02-12T00:50:35.477Z,98069.00
2023-02-12T00:54:38.549Z,98055.00
2023-02-12T00:58:43.099Z,98061.00
2023-02-12T01:02:48.825Z,98055.00
2023-02-12T01:06:51.890Z,98062.00
2023-02-12T01:11:03.114Z,98077.00
2023-02-12T01:15:10.588Z,98074.00
2023-02-12T01:19:16.436Z,98084.00
2023-02-12T01:23:22.142Z,98077.00
2023-02-12T01:27:25.361Z,98070.00
2023-02-12T01:31:34.106Z,98064.00
2023-02-12T01:35:39.483Z,98070.00
2023-02-12T01:39:45.652Z,98067.00
2023-02-12T01:44:12.118Z,98070.00
2023-02-12T01:48:19.212Z,98072.00
2023-02-12T01:52:27.508Z,98069.00
2023-02-12T01:56:31.320Z,98065.00
2023-02-12T02:00:37.184Z,98068.00
2023-02-12T02:04:49.826Z,98067.00
2023-02-12T02:08:55.907Z,98063.00
2023-02-12T02:13:17.652Z,98065.00
2023-02-12T02:17:48.510Z,98083.00
2023-02-12T02:22:27.152Z,98088.00
2023-02-12T02:27:02.549Z,98084.00
2023-02-12T02:31:16.223Z,98083.00
2023-02-12T02:35:29.652Z,98066.00
2023-02-12T02:39:39.392Z,98077.00
2023-02-12T02:43:47.740Z,98077.00
2023-02-12T02:47:59.677Z,98066.00
2023-02-12T02:52:13.577Z,98070.00
2023-02-12T02:56:20.482Z,98071.00
2023-02-12T03:00:27.485Z,98073.00
2023-02-12T03:04:40.841Z,98075.00
2023-02-12T03:08:50.156Z,98078.00
2023-02-12T03:12:56.756Z,98078.00
2023-02-12T03:17:04.974Z,98072.00
2023-02-12T03:21:14.333Z,98088.00
2023-02-12T03:25:23.628Z,98090.00
2023-02-12T03:29:29.930Z,98090.00
2023-02-12T03:33:43.045Z,98095.00
2023-02-12T03:37:58.072Z,98103.00
2023-02-12T03:42:08.688Z,98103.00
2023-02-12T03:46:21.120Z,98099.00
2023-02-12T03:50:33.938Z,98105.00
2023-02-12T03:54:38.413Z,98113.00
2023-02-12T03:58:45.440Z,98117.00
2023-02-12T04:02:49.149Z,98107.00
2023-02-12T04:06:56.941Z,98114.00
2023-02-12T04:11:17.400Z,98111.00
2023-02-12T04:15:45.275Z,98122.00
2023-02-12T04:20:04.231Z,98127.00
2023-02-12T04:24:22.509Z,98123.00
2023-02-12T04:28:36.381Z,98133.00
2023-02-12T04:32:45.361Z,98129.00
2023-02-12T04:36:55.750Z,98137.00
2023-02-12T04:41:00.197Z,98143.00
2023-02-12T04:45:07.227Z,98139.00
2023-02-12T04:49:15.734Z,98156.00
2023-02-12T04:53:19.144Z,98145.00
2023-02-12T04:57:23.448Z,98150.00
2023-02-12T05:01:30.981Z,98149.00
2023-02-12T05:05:35.711Z,98149.00
2023-02-12T05:09:39.132Z,98146.00
2023-02-12T05:13:44.520Z,98156.00
2023-02-12T05:17:49.061Z,98158.00
2023-02-12T05:21:52.902Z,98155.00
2023-02-12T05:25:58.874Z,98158.00
2023-02-12T05:30:02.645Z,98163.00
2023-02-12T05:34:10.296Z,98166.00
2023-02-12T05:38:14.958Z,98169.00
2023-02-12T05:42:18.024Z,98164.00
2023-02-12T05:46:22.907Z,98172.00
2023-02-12T05:50:32.314Z,98162.00
2023-02-12T05:54:35.736Z,98156.00
2023-02-12T05:58:39.122Z,98169.00
2023-02-12T06:02:42.198Z,98158.00
2023-02-12T06:06:46.805Z,98165.00
2023-02-12T06:10:52.064Z,98166.00
2023-02-12T06:14:58.415Z,98176.00
2023-02-12T06:19:03.729Z,98181.00
2023-02-12T06:23:10.489Z,98173.00
2023-02-12T06:27:13.669Z,98174.00
2023-02-12T06:31:22.712Z,98181.00
2023-02-12T06:35:25.928Z,98179.00
2023-02-12T06:39:32.636Z,98186.00
2023-02-12T06:43:38.220Z,98195.00
2023-02-12T06:47:41.295Z,98202.00
2023-02-12T06:51:47.315Z,98195.00
2023-02-12T06:55:54.272Z,98203.00
2023-02-12T06:59:57.736Z,98210.00
2023-02-12T07:04:06.978Z,98212.00
2023-02-12T07:08:10.338Z,98211.00
2023-02-12T07:12:16.852Z,98221.00
2023-02-12T07:16:20.347Z,98207.00
2023-02-12T07:20:23.584Z,98218.00
2023-02-12T07:24:28.323Z,98224.00
2023-02-12T07:28:33.896Z,98232.00
2023-02-12T07:32:38.053Z,98225.00
2023-02-12T07:36:42.227Z,98224.00
2023-02-12T07:40:50.139Z,98224.00
2023-02-12T07:44:56.797Z,98223.00
2023-02-12T07:49:04.405Z,98218.00
2023-02-12T07:53:10.216Z,98219.00
2023-02-12T07:57:17.101Z,98224.00
2023-02-12T08:01:28.450Z,98231.00
2023-02-12T08:05:31.609Z,98232.00
2023-02-12T08:09:39.807Z,98233.00
2023-02-12T08:13:46.316Z,98233.00
2023-02-12T08:17:51.292Z,98227.00
2023-02-12T08:21:58.502Z,98227.00
2023-02-12T08:26:10.586Z,98239.00
2023-02-12T08:30:15.662Z,98241.00
2023-02-12T08:34:25.400Z,98232.00
2023-02-12T08:38:28.500Z,98234.00
2023-02-12T08:42:31.705Z,98235.00
2023-02-12T08:46:37.474Z,98224.00
2023-02-12T08:50:44.075Z,98235.00
2023-02-12T08:54:47.228Z,98239.00
2023-02-12T08:58:53.172Z,98236.00
2023-02-12T09:02:56.207Z,98247.00
2023-02-12T09:07:00.932Z,98243.00
2023-02-12T09:11:09.116Z,98249.00
2023-02-12T09:15:12.436Z,98250.00
2023-02-12T09:19:16.395Z,98248.00
2023-02-12T09:23:21.956Z,98254.00
2023-02-12T09:27:25.040Z,98259.00
2023-02-12T09:31:32.518Z,98252.00
2023-02-12T09:35:41.315Z,98252.00
2023-02-12T09:39:46.075Z,98266.00
2023-02-12T09:43:58.975Z,98256.00
2023-02-12T09:48:09.086Z,98255.00
2023-02-12T09:52:17.565Z,98260.00
2023-02-12T09:56:25.970Z,98265.00
2023-02-12T10:00:32.678Z,98261.00
2023-02-12T10:04:46.140Z,98268.00
2023-02-12T10:09:25.718Z,98266.00
2023-02-12T10:13:43.203Z,98267.00
2023-02-12T10:17:54.150Z,98262.00
2023-02-12T10:22:08.691Z,98272.00
2023-02-12T10:26:25.747Z,98266.00
2023-02-12T10:30:42.315Z,98270.00
2023-02-12T10:34:47.951Z,98265.00
2023-02-12T10:38:58.801Z,98267.00
2023-02-12T10:43:03.649Z,98274.00
2023-02-12T10:47:08.748Z,98275.00
2023-02-12T10:51:39.208Z,98267.00
2023-02-12T10:55:44.313Z,98272.00
2023-02-12T10:59:48.609Z,98269.00
2023-02-12T11:03:53.601Z,98270.00
2023-02-12T11:08:05.093Z,98257.00
2023-02-12T11:12:28.413Z,98263.00
2023-02-12T11:16:35.284Z,98268.00
2023-02-12T11:20:43.634Z,98261.00
2023-02-12T11:24:48.151Z,98251.00
2023-02-12T11:28:59.972Z,98249.00
2023-02-12T11:33:17.906Z,98252.00
2023-02-12T11:37:22.439Z,98243.00
2023-02-12T11:41:34.716Z,98251.00
2023-02-12T11:45:46.547Z,98250.00
2023-02-12T11:49:54.513Z,98246.00
2023-02-12T11:54:04.493Z,98236.00
2023-02-12T11:58:17.376Z,98245.00
2023-02-12T12:02:28.026Z,98248.00
2023-02-12T12:06:36.921Z,98255.00
2023-02-12T12:10:45.798Z,98245.00
2023-02-12T12:15:12.804Z,98249.00
2023-02-12T12:19:38.539Z,98243.00
2023-02-12T12:23:49.941Z,98251.00
2023-02-12T12:28:08.599Z,98245.00
2023-02-12T12:32:20.417Z,98239.00
2023-02-12T12:37:02.509Z,98239.00
2023-02-12T12:41:16.682Z,98233.00
2023-02-12T12:45:36.212Z,98233.00
2023-02-12T12:49:53.622Z,98235.00
2023-02-12T12:54:06.704Z,98242.00
2023-02-12T12:58:21.168Z,98243.00
2023-02-12T13:02:53.996Z,98237.00
2023-02-12T13:07:12.000Z,98230.00
2023-02-12T13:11:32.558Z,98224.00
2023-02-12T13:15:44.344Z,98235.00
2023-02-12T13:19:57.812Z,98238.00
2023-02-12T13:24:08.230Z,98231.00
2023-02-12T13:28:16.796Z,98239.00
2023-02-12T13:32:28.511Z,98233.00
2023-02-12T13:36:34.718Z,98232.00
2023-02-12T13:40:38.217Z,98235.00
2023-02-12T13:44:50.538Z,98237.00
2023-02-12T13:49:01.929Z,98236.00
2023-02-12T13:53:16.843Z,98231.00
2023-02-12T13:57:22.581Z,98234.00
2023-02-12T14:01:41.850Z,98229.00
2023-02-12T14:05:46.851Z,98222.00
2023-02-12T14:10:04.286Z,98231.00
2023-02-12T14:14:07.781Z,98229.00
2023-02-12T14:18:32.214Z,98224.00
2023-02-12T14:23:11.839Z,98227.00
2023-02-12T14:27:29.198Z,98232.00
2023-02-12T14:31:38.389Z,98229.00
2023-02-12T14:35:45.651Z,98234.00
2023-02-12T14:39:48.824Z,98224.00
2023-02-12T14:44:04.627Z,98227.00
2023-02-12T14:48:12.139Z,98216.00
2023-02-12T14:52:19.705Z,98216.00
2023-02-12T14:56:24.728Z,98218.00
2023-02-12T15:00:33.804Z,98218.00
2023-02-12T15:04:41.725Z,98217.00
2023-02-12T15:08:54.492Z,98211.00
2023-02-12T15:13:09.433Z,98215.00
2023-02-12T15:17:17.816Z,98211.00
2023-02-12T15:21:24.022Z,98211.00
2023-02-12T15:25:28.994Z,98207.00
2023-02-12T15:29:37.603Z,98206.00
2023-02-12T15:33:50.999Z,98216.00
2023-02-12T15:37:55.299Z,98210.00
2023-02-12T15:42:02.364Z,98207.00
2023-02-12T15:46:09.043Z,98200.00
2023-02-12T15:50:17.757Z,98196.00
2023-02-12T15:54:21.922Z,98197.00
2023-02-12T15:58:27.037Z,98195.00
2023-02-12T16:02:33.052Z,98200.00
2023-02-12T16:06:38.002Z,98196.00
2023-02-12T16:10:45.265Z,98198.00
2023-02-12T16:14:54.288Z,98202.00
2023-02-12T16:19:09.779Z,98195.00
2023-02-12T16:23:15.255Z,98192.00
2023-02-12T16:27:24.026Z,98193.00
2023-02-12T16:31:29.175Z,98197.00
2023-02-12T16:35:38.890Z,98202.00
2023-02-12T16:40:22.285Z,98207.00
2023-02-12T16:44:31.633Z,98209.00
2023-02-12T16:48:40.517Z,98203.00
2023-02-12T16:52:46.309Z,98211.00
2023-02-12T16:56:52.420Z,98210.00
2023-02-12T17:01:02.694Z,98216.00
2023-02-12T17:05:07.388Z,98220.00
2023-02-12T17:09:14.071Z,98216.00
2023-02-12T17:13:20.899Z,98230.00
2023-02-12T17:17:24.018Z,98229.00
2023-02-12T17:21:29.467Z,98235.00
2023-02-12T17:25:34.035Z,98231.00
2023-02-12T17:29:38.657Z,98233.00
2023-02-12T17:33:41.838Z,98241.00
2023-02-12T17:37:48.057Z,98238.00
2023-02-12T17:41:54.328Z,98238.00
2023-02-12T17:46:01.372Z,98231.00
2023-02-12T17:50:08.152Z,98238.00
2023-02-12T17:54:11.488Z,98239.00
2023-02-12T17:58:14.763Z,98232.00
2023-02-12T18:02:19.578Z,98224.00
2023-02-12T18:06:24.990Z,98230.00
2023-02-12T18:10:28.048Z,98231.00
2023-02-12T18:14:31.160Z,98231.00
2023-02-12T18:18:40.341Z,98224.00
2023-02-12T18:22:48.407Z,98240.00
2023-02-12T18:26:54.690Z,98239.00
2023-02-12T18:30:59.702Z,98227.00
2023-02-12T18:35:25.184Z,98227.00
2023-02-12T18:39:33.976Z,98224.00
2023-02-12T18:43:37.348Z,98227.00
2023-02-12T18:47:40.511Z,98232.00
2023-02-12T18:51:48.781Z,98234.00
2023-02-12T18:55:57.211Z,98236.00
2023-02-12T19:00:00.354Z,98238.00
2023-02-12T19:04:06.121Z,98227.00
2023-02-12T19:08:10.700Z,98223.00
2023-02-12T19:12:18.467Z,98229.00
2023-02-12T19:16:23.630Z,98232.00
2023-02-12T19:20:27.090Z,98228.00
2023-02-12T19:24:45.605Z,98230.00
2023-02-12T19:28:49.774Z,98226.00
2023-02-12T19:32:54.793Z,98227.00
2023-02-12T19:37:01.023Z,98240.00
2023-02-12T19:41:07.290Z,98238.00
2023-02-12T19:45:11.203Z,98240.00
2023-02-12T19:49:16.932Z,98243.00
2023-02-12T19:53:20.177Z,98242.00
2023-02-12T19:57:24.694Z,98241.00
2023-02-12T20:01:28.421Z,98228.00
2023-02-12T20:05:31.765Z,98244.00
2023-02-12T20:09:37.149Z,98234.00
2023-02-12T20:13:41.841Z,98240.00
2023-02-12T20:17:45.317Z,98238.00
2023-02-12T20:21:54.217Z,98239.00
2023-02-12T20:25:57.299Z,98245.00
2023-02-12T20:30:02.938Z,98249.00
2023-02-12T20:34:08.043Z,98245.00
2023-02-12T20:38:15.669Z,98256.00
2023-02-12T20:42:19.965Z,98255.00
2023-02-12T20:46:25.739Z,98246.00
2023-02-12T20:50:31.285Z,98251.00
2023-02-12T20:54:34.600Z,98241.00
2023-02-12T20:58:41.201Z,98255.00
2023-02-12T21:02:47.020Z,98246.00
2023-02-12T21:06:50.172Z,98252.00
2023-02-12T21:11:02.558Z,98250.00
2023-02-12T21:15:06.078Z,98247.00
2023-02-12T21:19:10.782Z,98248.00
2023-02-12T21:23:14.212Z,98251.00
2023-02-12T21:27:17.212Z,98251.00
2023-02-12T21:31:24.445Z,98243.00
2023-02-12T21:35:29.343Z,98245.00
2023-02-12T21:39:32.440Z,98245.00
2023-02-12T21:43:41.890Z,98236.00
2023-02-12T21:47:48.227Z,98237.00
2023-02-12T21:51:55.201Z,98231.00
2023-02-12T21:56:03.089Z,98219.00
2023-02-12T22:00:07.705Z,98222.00
2023-02-12T22:04:11.525Z,98220.00
2023-02-12T22:08:22.407Z,98224.00
2023-02-12T22:12:27.506Z,98231.00
2023-02-12T22:16:33.601Z,98225.00
2023-02-12T22:20:38.727Z,98243.00
2023-02-12T22:24:45.081Z,98232.00
2023-02-12T22:28:50.493Z,98231.00
2023-02-12T22:32:57.740Z,98231.00
2023-02-12T22:37:01.281Z,98228.00
2023-02-12T22:41:10.963Z,98239.00
2023-02-12T22:45:17.317Z,98233.00
2023-02-12T22:49:20.613Z,98245.00
2023-02-12T22:53:26.800Z,98235.00
2023-02-12T22:57:31.248Z,98240.00
2023-02-12T23:01:34.558Z,98242.00
2023-02-12T23:05:38.577Z,98237.00
2023-02-12T23:09:45.928Z,98241.00
2023-02-12T23:13:52.738Z,98243.00
2023-02-12T23:17:55.789Z,98242.00
2023-02-12T23:21:58.924Z,98241.00
2023-02-12T23:26:03.424Z,98240.00
2023-02-12T23:30:09.464Z,98238.00
2023-02-12T23:34:17.859Z,98232.00
2023-02-12T23:38:20.929Z,98228.00
2023-02-12T23:42:31.330Z,98219.00
2023-02-12T23:46:37.575Z,98222.00
2023-02-12T23:50:43.582Z,98226.00
2023-02-12T23:54:46.618Z,98220.00
2023-02-12T23:58:50.909Z,98223.00
